Time;durP1;ratioP1;P1;durP2;ratioP2;P2;SDS_P1;SDS_P2;PMS_P1;PMS_P2;Temp;Humidity;BMP_temperature;BMP_pressure;BME280_temperature;BME280_humidity;BME280_pressure;Samples;Min_cycle;Max_cycle;Signal;HPM_P1;HPM_P2
2022/03/05 00:01:51;;;;;;;19.90;11.30;;;;;;;;;;4923773;29;20106;-80
2022/03/05 00:04:17;;;;;;;16.80;10.88;;;;;;;;;;4927281;29;20070;-80
2022/03/05 00:06:43;;;;;;;20.50;11.25;;;;;;;;;;4929698;29;20039;-80
2022/03/05 00:09:08;;;;;;;16.27;10.25;;;;;;;;;;4931322;29;20039;-80
2022/03/05 00:11:33;;;;;;;16.58;10.65;;;;;;;;;;4929917;29;20141;-79
2022/03/05 00:13:58;;;;;;;15.95;10.73;;;;;;;;;;4934479;29;20074;-81
2022/03/05 00:16:24;;;;;;;18.60;10.63;;;;;;;;;;4931247;29;20050;-77
2022/03/05 00:18:50;;;;;;;20.45;10.90;;;;;;;;;;4931339;29;20082;-80
2022/03/05 00:21:15;;;;;;;18.85;10.73;;;;;;;;;;4929504;29;20039;-80
2022/03/05 00:23:40;;;;;;;18.70;11.00;;;;;;;;;;4914456;29;20046;-80
2022/03/05 00:26:06;;;;;;;14.90;10.25;;;;;;;;;;4915502;29;20035;-80
2022/03/05 00:28:31;;;;;;;16.52;10.30;;;;;;;;;;4946189;29;20051;-80
2022/03/05 00:31:00;;;;;;;16.83;10.05;;;;;;;;;;4912565;28;20740;-79
2022/03/05 00:33:25;;;;;;;19.90;10.55;;;;;;;;;;4931507;29;20445;-79
2022/03/05 00:35:51;;;;;;;19.20;10.23;;;;;;;;;;4943922;28;20051;-80
2022/03/05 00:38:16;;;;;;;17.50;10.73;;;;;;;;;;4932026;29;20027;-78
2022/03/05 00:40:42;;;;;;;16.13;9.90;;;;;;;;;;4931382;28;20047;-78
2022/03/05 00:43:08;;;;;;;16.65;10.65;;;;;;;;;;4929401;29;20919;-79
2022/03/05 00:45:33;;;;;;;17.02;10.25;;;;;;;;;;4930017;29;20046;-81
2022/03/05 00:47:58;;;;;;;18.27;10.18;;;;;;;;;;4929191;29;20174;-80
2022/03/05 00:50:23;;;;;;;16.45;9.40;;;;;;;;;;4942025;28;20043;-80
2022/03/05 00:52:49;;;;;;;18.05;9.60;;;;;;;;;;4932182;28;20043;-80
2022/03/05 00:55:14;;;;;;;22.92;10.35;;;;;;;;;;4928774;29;20067;-78
2022/03/05 00:57:40;;;;;;;17.88;10.13;;;;;;;;;;4929034;28;20039;-79
2022/03/05 01:00:06;;;;;;;14.65;9.27;;;;;;;;;;4911730;28;20050;-79
2022/03/05 01:02:32;;;;;;;16.33;9.43;;;;;;;;;;4922039;28;20167;-79
2022/03/05 01:04:59;;;;;;;17.55;9.23;;;;;;;;;;4909507;29;20043;-79
2022/03/05 01:07:25;;;;;;;16.35;9.80;;;;;;;;;;4930441;29;20055;-81
2022/03/05 01:09:50;;;;;;;17.38;9.15;;;;;;;;;;4912559;29;20506;-81
2022/03/05 01:12:15;;;;;;;15.70;9.70;;;;;;;;;;4913368;29;20036;-81
2022/03/05 01:14:41;;;;;;;21.83;9.32;;;;;;;;;;4922249;29;20040;-81
2022/03/05 01:17:06;;;;;;;14.32;8.75;;;;;;;;;;4913160;29;20102;-81
2022/03/05 01:19:31;;;;;;;16.55;10.07;;;;;;;;;;4919132;28;20058;-81
2022/03/05 01:21:57;;;;;;;14.65;9.57;;;;;;;;;;4913325;29;20043;-81
2022/03/05 01:24:22;;;;;;;16.67;9.40;;;;;;;;;;4914406;29;20039;-81
2022/03/05 01:26:47;;;;;;;17.60;9.52;;;;;;;;;;4913463;29;20420;-81
2022/03/05 01:29:13;;;;;;;16.17;9.60;;;;;;;;;;4930267;29;20906;-81
2022/03/05 01:31:38;;;;;;;20.30;11.30;;;;;;;;;;4911515;29;20075;-81
2022/03/05 01:34:03;;;;;;;21.42;10.95;;;;;;;;;;4914073;29;20039;-81
2022/03/05 01:36:29;;;;;;;17.70;10.38;;;;;;;;;;4913061;29;20035;-80
2022/03/05 01:38:54;;;;;;;16.02;10.30;;;;;;;;;;4928994;29;20049;-81
2022/03/05 01:41:20;;;;;;;17.00;9.93;;;;;;;;;;4921704;28;20078;-80
2022/03/05 01:43:50;;;;;;;14.82;9.60;;;;;;;;;;4916136;29;20380;-80
2022/03/05 01:46:26;;;;;;;18.17;10.38;;;;;;;;;;4927828;29;20077;-79
2022/03/05 01:48:52;;;;;;;18.88;10.40;;;;;;;;;;4913970;29;20633;-82
2022/03/05 01:51:17;;;;;;;17.75;9.50;;;;;;;;;;4925695;29;20047;-79
2022/03/05 01:53:42;;;;;;;17.92;10.18;;;;;;;;;;4930033;29;20829;-82
2022/03/05 01:56:08;;;;;;;18.20;10.50;;;;;;;;;;4928415;29;20058;-80
2022/03/05 01:58:33;;;;;;;19.52;9.70;;;;;;;;;;4930630;29;20035;-81
2022/03/05 02:00:59;;;;;;;16.45;9.95;;;;;;;;;;4926565;28;20074;-82
2022/03/05 02:03:24;;;;;;;19.92;9.60;;;;;;;;;;4911191;29;20067;-80
2022/03/05 02:05:50;;;;;;;19.75;10.07;;;;;;;;;;4909489;29;20028;-81
2022/03/05 02:08:17;;;;;;;15.60;9.32;;;;;;;;;;4909941;29;20578;-81
2022/03/05 02:10:42;;;;;;;16.15;8.93;;;;;;;;;;4907472;29;20591;-81
2022/03/05 02:13:07;;;;;;;19.13;9.88;;;;;;;;;;4910351;29;20035;-81
2022/03/05 02:15:33;;;;;;;14.93;9.00;;;;;;;;;;4929155;29;20043;-81
2022/03/05 02:17:59;;;;;;;17.55;9.18;;;;;;;;;;4928203;29;21328;-80
2022/03/05 02:20:29;;;;;;;15.30;9.18;;;;;;;;;;4907951;29;20102;-80
2022/03/05 02:22:55;;;;;;;15.35;8.88;;;;;;;;;;4913090;29;20424;-81
2022/03/05 02:25:20;;;;;;;15.85;8.40;;;;;;;;;;4925209;29;20027;-80
2022/03/05 02:27:46;;;;;;;13.82;8.10;;;;;;;;;;4908017;29;20698;-81
2022/03/05 02:30:11;;;;;;;14.35;9.02;;;;;;;;;;4909621;29;20068;-80
2022/03/05 02:32:37;;;;;;;16.30;8.20;;;;;;;;;;4909547;29;20046;-80
2022/03/05 02:35:02;;;;;;;15.05;8.63;;;;;;;;;;4908328;29;20150;-80
2022/03/05 02:37:28;;;;;;;14.68;8.95;;;;;;;;;;4923401;29;20091;-80
2022/03/05 02:39:53;;;;;;;15.38;8.73;;;;;;;;;;4924187;29;20403;-80
2022/03/05 02:42:18;;;;;;;18.10;8.43;;;;;;;;;;4908286;29;20043;-80
2022/03/05 02:44:45;;;;;;;14.27;8.18;;;;;;;;;;4924105;29;20035;-80
2022/03/05 02:47:10;;;;;;;14.50;8.38;;;;;;;;;;4923657;29;20040;-80
2022/03/05 02:49:36;;;;;;;14.55;8.23;;;;;;;;;;4922462;29;20058;-79
2022/03/05 02:52:02;;;;;;;14.10;8.10;;;;;;;;;;4908593;29;20031;-80
2022/03/05 02:54:27;;;;;;;14.25;7.68;;;;;;;;;;4929311;29;20032;-80
2022/03/05 02:56:52;;;;;;;14.98;8.23;;;;;;;;;;4908391;29;20600;-80
2022/03/05 02:59:18;;;;;;;15.02;7.68;;;;;;;;;;4910977;29;20054;-80
2022/03/05 03:01:43;;;;;;;15.15;7.93;;;;;;;;;;4907586;29;20039;-80
2022/03/05 03:04:09;;;;;;;18.55;8.55;;;;;;;;;;4908262;29;20078;-80
2022/03/05 03:06:34;;;;;;;15.75;7.95;;;;;;;;;;4923732;29;20051;-80
2022/03/05 03:09:00;;;;;;;15.30;7.85;;;;;;;;;;4923283;29;20135;-80
2022/03/05 03:11:25;;;;;;;16.17;8.00;;;;;;;;;;4911242;29;20055;-80
2022/03/05 03:13:50;;;;;;;18.50;8.20;;;;;;;;;;4908885;29;20475;-80
2022/03/05 03:16:16;;;;;;;15.70;7.85;;;;;;;;;;4906550;29;20032;-80
2022/03/05 03:18:42;;;;;;;14.60;8.52;;;;;;;;;;4907544;29;20078;-80
2022/03/05 03:21:07;;;;;;;15.95;7.95;;;;;;;;;;4906076;29;20047;-81
2022/03/05 03:23:32;;;;;;;14.15;8.00;;;;;;;;;;4910254;29;20121;-80
2022/03/05 03:25:58;;;;;;;14.75;8.30;;;;;;;;;;4921968;29;20036;-81
2022/03/05 03:28:23;;;;;;;14.77;7.80;;;;;;;;;;4924356;29;20044;-81
2022/03/05 03:30:48;;;;;;;16.15;8.30;;;;;;;;;;4906808;29;20036;-80
2022/03/05 03:33:14;;;;;;;16.05;8.10;;;;;;;;;;4909460;29;20062;-80
2022/03/05 03:35:39;;;;;;;15.95;8.27;;;;;;;;;;4907159;29;20394;-80
2022/03/05 03:38:04;;;;;;;15.93;8.85;;;;;;;;;;4908820;29;20035;-81
2022/03/05 03:40:32;;;;;;;13.25;7.60;;;;;;;;;;4922992;29;20051;-81
2022/03/05 03:42:58;;;;;;;19.45;8.95;;;;;;;;;;4908583;29;20027;-81
2022/03/05 03:45:23;;;;;;;14.95;8.02;;;;;;;;;;4906819;29;20543;-81
2022/03/05 03:47:50;;;;;;;17.40;8.95;;;;;;;;;;4910583;29;20051;-81
2022/03/05 03:50:18;;;;;;;14.98;7.82;;;;;;;;;;4906459;29;20027;-81
2022/03/05 03:52:44;;;;;;;17.30;8.55;;;;;;;;;;4922538;29;20060;-81
2022/03/05 03:55:14;;;;;;;14.00;8.50;;;;;;;;;;4908463;29;20032;-82
2022/03/05 03:57:39;;;;;;;15.38;8.77;;;;;;;;;;4923844;29;20031;-81
2022/03/05 04:00:07;;;;;;;17.23;9.05;;;;;;;;;;4922292;29;20408;-81
2022/03/05 04:02:33;;;;;;;15.73;8.18;;;;;;;;;;4906916;29;20047;-80
2022/03/05 04:04:58;;;;;;;14.98;8.65;;;;;;;;;;4923584;29;20056;-80
2022/03/05 04:10:07;;;;;;;17.50;8.48;;;;;;;;;;4921640;29;20051;-81
2022/03/05 04:12:33;;;;;;;15.82;8.40;;;;;;;;;;4923721;29;20047;-82
2022/03/05 04:14:58;;;;;;;15.93;9.02;;;;;;;;;;4922785;29;20102;-81
2022/03/05 04:17:24;;;;;;;16.90;9.20;;;;;;;;;;4922496;29;20032;-81
2022/03/05 04:19:49;;;;;;;15.30;8.50;;;;;;;;;;4921378;29;20059;-80
2022/03/05 04:22:14;;;;;;;16.30;9.02;;;;;;;;;;4922485;29;20122;-82
2022/03/05 04:24:40;;;;;;;17.00;9.52;;;;;;;;;;4909003;29;20061;-83
2022/03/05 04:27:05;;;;;;;17.52;10.07;;;;;;;;;;4906811;29;21328;-80
2022/03/05 04:29:32;;;;;;;14.25;9.50;;;;;;;;;;4916131;29;20043;-80
2022/03/05 04:31:57;;;;;;;16.88;9.68;;;;;;;;;;4921731;29;20091;-80
2022/03/05 04:34:23;;;;;;;18.88;10.27;;;;;;;;;;4922978;29;20063;-80
2022/03/05 04:36:48;;;;;;;18.13;11.18;;;;;;;;;;4921988;29;20650;-82
2022/03/05 04:39:14;;;;;;;21.45;11.07;;;;;;;;;;4922024;29;20119;-81
2022/03/05 04:41:39;;;;;;;18.98;10.93;;;;;;;;;;4921714;29;20043;-81
2022/03/05 04:44:05;;;;;;;19.45;10.68;;;;;;;;;;4908358;29;20395;-80
2022/03/05 04:46:34;;;;;;;19.83;10.90;;;;;;;;;;4907093;29;20038;-81
2022/03/05 04:48:59;;;;;;;19.25;10.63;;;;;;;;;;4923023;29;20062;-80
2022/03/05 04:51:24;;;;;;;18.00;11.02;;;;;;;;;;4920527;29;20055;-81
2022/03/05 04:53:50;;;;;;;18.88;11.68;;;;;;;;;;4913551;29;20035;-80
2022/03/05 04:56:15;;;;;;;22.98;11.55;;;;;;;;;;4925839;29;20122;-81
2022/03/05 04:58:41;;;;;;;19.08;11.73;;;;;;;;;;4926152;29;20550;-81
2022/03/05 05:01:06;;;;;;;17.00;11.50;;;;;;;;;;4909682;29;20036;-80
2022/03/05 05:03:32;;;;;;;22.95;14.27;;;;;;;;;;4942649;28;20051;-80
2022/03/05 05:05:58;;;;;;;19.25;12.80;;;;;;;;;;4908965;29;20498;-81
2022/03/05 05:08:23;;;;;;;22.92;12.50;;;;;;;;;;4925994;29;20119;-81
2022/03/05 05:10:48;;;;;;;21.55;12.63;;;;;;;;;;4907774;29;20046;-81
2022/03/05 05:13:14;;;;;;;18.13;12.15;;;;;;;;;;4910095;29;20138;-82
2022/03/05 05:15:39;;;;;;;25.73;12.32;;;;;;;;;;4925189;29;20067;-82
2022/03/05 05:18:05;;;;;;;19.83;12.60;;;;;;;;;;4926487;29;20050;-82
2022/03/05 05:20:30;;;;;;;21.02;11.85;;;;;;;;;;4909210;29;20606;-82
2022/03/05 05:22:56;;;;;;;24.17;12.70;;;;;;;;;;4927265;29;20059;-82
2022/03/05 05:25:21;;;;;;;19.13;11.63;;;;;;;;;;4924922;29;20035;-82
2022/03/05 05:27:46;;;;;;;20.13;12.02;;;;;;;;;;4925398;29;20571;-82
2022/03/05 05:30:12;;;;;;;21.42;12.93;;;;;;;;;;4923532;29;20050;-83
2022/03/05 05:32:38;;;;;;;21.63;12.98;;;;;;;;;;4909963;29;20043;-82
2022/03/05 05:35:04;;;;;;;20.90;12.88;;;;;;;;;;4925026;29;20047;-82
2022/03/05 05:37:30;;;;;;;24.48;13.15;;;;;;;;;;4924702;29;20046;-82
2022/03/05 05:39:55;;;;;;;21.17;12.40;;;;;;;;;;4940830;29;20039;-82
2022/03/05 05:42:21;;;;;;;20.75;13.18;;;;;;;;;;4924425;29;20039;-82
2022/03/05 05:44:46;;;;;;;23.92;12.75;;;;;;;;;;4910754;29;20055;-82
2022/03/05 05:47:13;;;;;;;22.52;12.88;;;;;;;;;;4924621;29;20543;-82
2022/03/05 05:49:38;;;;;;;20.95;13.05;;;;;;;;;;4925162;29;20102;-82
2022/03/05 05:52:04;;;;;;;22.58;12.65;;;;;;;;;;4923407;29;20423;-82
2022/03/05 05:54:30;;;;;;;21.38;13.35;;;;;;;;;;4909795;29;20032;-82
2022/03/05 05:56:55;;;;;;;23.17;13.73;;;;;;;;;;4924380;29;20257;-82
2022/03/05 05:59:21;;;;;;;21.52;13.25;;;;;;;;;;4924797;28;20032;-82
2022/03/05 06:01:46;;;;;;;21.77;12.45;;;;;;;;;;4923123;29;20655;-82
2022/03/05 06:04:12;;;;;;;24.77;14.55;;;;;;;;;;4912617;29;20130;-82
2022/03/05 06:06:37;;;;;;;22.83;13.57;;;;;;;;;;4923531;29;20114;-83
2022/03/05 06:09:03;;;;;;;21.83;13.52;;;;;;;;;;4909197;29;20499;-82
2022/03/05 06:11:29;;;;;;;21.50;14.60;;;;;;;;;;4923371;29;20122;-82
2022/03/05 06:13:55;;;;;;;24.35;14.75;;;;;;;;;;4939660;28;20034;-83
2022/03/05 06:16:20;;;;;;;25.58;13.85;;;;;;;;;;4906898;29;20502;-82
2022/03/05 06:18:46;;;;;;;22.70;14.45;;;;;;;;;;4924209;29;20035;-81
2022/03/05 06:21:11;;;;;;;28.40;14.35;;;;;;;;;;4910781;29;20035;-83
2022/03/05 06:23:37;;;;;;;26.52;14.95;;;;;;;;;;4924635;29;20491;-82
2022/03/05 06:26:04;;;;;;;24.23;15.15;;;;;;;;;;4924284;29;20118;-82
2022/03/05 06:28:29;;;;;;;23.63;15.00;;;;;;;;;;4893315;29;20046;-82
2022/03/05 06:30:54;;;;;;;23.15;14.73;;;;;;;;;;4907795;29;20570;-82
2022/03/05 06:33:20;;;;;;;24.48;15.27;;;;;;;;;;4924476;29;20534;-82
2022/03/05 06:35:45;;;;;;;28.73;15.70;;;;;;;;;;4907478;29;20118;-82
2022/03/05 06:38:10;;;;;;;22.27;14.23;;;;;;;;;;4908664;29;20110;-82
2022/03/05 06:40:36;;;;;;;22.38;14.43;;;;;;;;;;4910244;29;20070;-82
2022/03/05 06:43:01;;;;;;;20.90;14.25;;;;;;;;;;4925545;29;20114;-82
2022/03/05 06:45:27;;;;;;;23.65;14.20;;;;;;;;;;4923760;29;20038;-82
2022/03/05 06:47:52;;;;;;;22.45;14.35;;;;;;;;;;4923960;29;20407;-82
2022/03/05 06:50:17;;;;;;;21.42;12.75;;;;;;;;;;4923506;28;20067;-83
2022/03/05 06:52:43;;;;;;;22.77;12.90;;;;;;;;;;4906050;29;20054;-82
2022/03/05 06:55:09;;;;;;;23.98;13.05;;;;;;;;;;4907623;29;20035;-82
2022/03/05 06:57:34;;;;;;;21.55;12.13;;;;;;;;;;4925254;29;20586;-82
2022/03/05 06:59:59;;;;;;;23.58;12.40;;;;;;;;;;4923526;29;20032;-82
2022/03/05 07:02:25;;;;;;;23.23;13.38;;;;;;;;;;4899675;29;20055;-82
2022/03/05 07:04:50;;;;;;;24.63;12.25;;;;;;;;;;4923917;29;20059;-82
2022/03/05 07:07:16;;;;;;;24.50;11.93;;;;;;;;;;4922699;29;20481;-82
2022/03/05 07:09:41;;;;;;;22.00;11.43;;;;;;;;;;4924489;29;20048;-82
2022/03/05 07:12:07;;;;;;;22.58;11.50;;;;;;;;;;4921770;29;20048;-82
2022/03/05 07:14:32;;;;;;;19.50;10.25;;;;;;;;;;4924631;29;20126;-81
2022/03/05 07:16:58;;;;;;;19.67;10.52;;;;;;;;;;4907098;29;20134;-82
2022/03/05 07:19:23;;;;;;;19.83;11.38;;;;;;;;;;4907837;29;20039;-82
2022/03/05 07:21:48;;;;;;;18.30;10.77;;;;;;;;;;4906777;29;20184;-81
2022/03/05 07:24:14;;;;;;;20.05;10.52;;;;;;;;;;4907960;29;20324;-82
2022/03/05 07:26:39;;;;;;;19.02;10.85;;;;;;;;;;4907261;29;20102;-82
2022/03/05 07:29:06;;;;;;;18.17;11.40;;;;;;;;;;4924531;29;20035;-81
2022/03/05 07:31:31;;;;;;;17.03;10.67;;;;;;;;;;4920995;29;20511;-82
2022/03/05 07:33:57;;;;;;;18.42;11.18;;;;;;;;;;4922656;29;20047;-81
2022/03/05 07:36:22;;;;;;;20.23;11.00;;;;;;;;;;4906786;29;20055;-82
2022/03/05 07:38:47;;;;;;;20.42;11.10;;;;;;;;;;4905623;29;20131;-82
2022/03/05 07:41:13;;;;;;;20.15;10.35;;;;;;;;;;4907203;29;20632;-83
2022/03/05 07:43:39;;;;;;;22.67;11.70;;;;;;;;;;4923318;29;20577;-82
2022/03/05 07:46:04;;;;;;;21.13;11.15;;;;;;;;;;4922309;29;20047;-81
2022/03/05 07:48:30;;;;;;;18.77;10.63;;;;;;;;;;4923689;29;20047;-81
2022/03/05 07:51:02;;;;;;;20.25;10.32;;;;;;;;;;4922989;29;20032;-81
2022/03/05 07:53:35;;;;;;;17.15;10.55;;;;;;;;;;4907249;29;20040;-81
2022/03/05 07:56:01;;;;;;;16.77;10.10;;;;;;;;;;4898268;29;20392;-82
2022/03/05 07:58:26;;;;;;;16.90;9.98;;;;;;;;;;4923221;29;20122;-82
2022/03/05 08:00:52;;;;;;;18.02;9.50;;;;;;;;;;4921933;29;20618;-84
2022/03/05 08:03:17;;;;;;;16.27;9.45;;;;;;;;;;4906580;29;20349;-82
2022/03/05 08:05:48;;;;;;;15.10;9.40;;;;;;;;;;4909159;29;20047;-82
2022/03/05 08:08:14;;;;;;;17.58;9.23;;;;;;;;;;4908829;29;20728;-82
2022/03/05 08:10:39;;;;;;;16.30;8.95;;;;;;;;;;4922489;29;20035;-81
2022/03/05 08:13:04;;;;;;;14.82;9.05;;;;;;;;;;4923333;29;20072;-83
2022/03/05 08:15:30;;;;;;;13.95;8.82;;;;;;;;;;4907571;29;20040;-81
2022/03/05 08:17:58;;;;;;;17.10;8.80;;;;;;;;;;4922796;29;20454;-81
2022/03/05 08:20:26;;;;;;;14.07;8.30;;;;;;;;;;4908462;29;20376;-77
2022/03/05 08:22:52;;;;;;;16.80;9.10;;;;;;;;;;4911869;29;20114;-77
2022/03/05 08:25:17;;;;;;;15.98;8.82;;;;;;;;;;4915420;29;20134;-77
2022/03/05 08:27:43;;;;;;;15.15;8.68;;;;;;;;;;4914181;29;20096;-76
2022/03/05 08:30:09;;;;;;;16.65;9.52;;;;;;;;;;4945928;28;20043;-77
2022/03/05 08:32:35;;;;;;;13.63;8.93;;;;;;;;;;4923822;29;20040;-81
2022/03/05 08:35:00;;;;;;;16.48;10.50;;;;;;;;;;4910748;29;20043;-82
2022/03/05 08:37:27;;;;;;;14.77;9.02;;;;;;;;;;4909957;29;25586;-88
2022/03/05 08:39:54;;;;;;;15.05;8.52;;;;;;;;;;4932190;29;20061;-80
2022/03/05 08:42:19;;;;;;;18.17;8.07;;;;;;;;;;4913910;29;20495;-79
2022/03/05 08:44:45;;;;;;;22.60;14.55;;;;;;;;;;4930413;29;20051;-83
2022/03/05 08:47:10;;;;;;;15.60;8.45;;;;;;;;;;4924469;29;20128;-81
2022/03/05 08:49:35;;;;;;;15.00;8.20;;;;;;;;;;4924500;29;20052;-82
2022/03/05 08:52:01;;;;;;;12.63;8.00;;;;;;;;;;4925252;29;20095;-81
2022/03/05 08:54:26;;;;;;;15.15;8.45;;;;;;;;;;4926111;29;20047;-83
2022/03/05 08:56:52;;;;;;;13.30;8.52;;;;;;;;;;4925763;29;20059;-83
2022/03/05 08:59:17;;;;;;;14.48;8.75;;;;;;;;;;4905747;29;20088;-83
2022/03/05 09:01:43;;;;;;;13.05;8.32;;;;;;;;;;4906797;29;20048;-77
2022/03/05 09:04:09;;;;;;;12.70;8.10;;;;;;;;;;4910369;29;20076;-76
2022/03/05 09:06:38;;;;;;;14.82;8.50;;;;;;;;;;4928474;29;20128;-77
2022/03/05 09:09:04;;;;;;;13.10;8.18;;;;;;;;;;4925798;29;20051;-79
2022/03/05 09:11:29;;;;;;;14.18;8.32;;;;;;;;;;4923283;29;20041;-77
2022/03/05 09:13:55;;;;;;;12.80;8.40;;;;;;;;;;4910397;29;20388;-77
2022/03/05 09:16:20;;;;;;;14.25;8.25;;;;;;;;;;4909219;29;20160;-78
2022/03/05 09:18:45;;;;;;;16.02;8.90;;;;;;;;;;4910084;29;20044;-77
2022/03/05 09:21:11;;;;;;;12.65;8.30;;;;;;;;;;4925356;29;20648;-78
2022/03/05 09:23:36;;;;;;;16.15;9.43;;;;;;;;;;4925559;29;20444;-79
2022/03/05 09:26:02;;;;;;;13.90;8.48;;;;;;;;;;4909616;29;20527;-77
2022/03/05 09:28:28;;;;;;;12.35;8.38;;;;;;;;;;4930198;29;20047;-77
2022/03/05 09:30:57;;;;;;;14.13;8.70;;;;;;;;;;4926802;29;20043;-77
2022/03/05 09:33:22;;;;;;;11.90;7.97;;;;;;;;;;4925389;29;20110;-85
2022/03/05 09:35:51;;;;;;;13.68;8.95;;;;;;;;;;4921597;29;20043;-83
2022/03/05 09:38:16;;;;;;;16.55;10.07;;;;;;;;;;4907960;29;20043;-81
2022/03/05 09:40:42;;;;;;;16.85;10.15;;;;;;;;;;4923590;29;20492;-82
2022/03/05 09:43:07;;;;;;;12.63;9.07;;;;;;;;;;4923738;29;20047;-82
2022/03/05 09:45:33;;;;;;;15.27;9.43;;;;;;;;;;4924553;29;20047;-81
2022/03/05 09:47:59;;;;;;;15.27;9.93;;;;;;;;;;4907785;29;20066;-84
2022/03/05 09:50:25;;;;;;;14.07;9.02;;;;;;;;;;4908513;29;20063;-83
2022/03/05 09:52:51;;;;;;;32.70;20.07;;;;;;;;;;4924498;29;20047;-80
2022/03/05 09:55:16;;;;;;;16.27;10.38;;;;;;;;;;4923742;29;20392;-82
2022/03/05 09:57:42;;;;;;;14.27;8.90;;;;;;;;;;4908131;29;20119;-83
2022/03/05 10:00:08;;;;;;;13.35;9.10;;;;;;;;;;4922581;29;20051;-84
2022/03/05 10:02:33;;;;;;;13.40;8.77;;;;;;;;;;4909993;29;20046;-83
2022/03/05 10:05:18;;;;;;;12.82;8.32;;;;;;;;;;4925353;29;20778;-83
2022/03/05 10:08:10;;;;;;;13.30;8.65;;;;;;;;;;4923005;29;20111;-82
2022/03/05 10:10:53;;;;;;;14.32;8.38;;;;;;;;;;4924371;29;20558;-83
2022/03/05 10:13:24;;;;;;;15.45;9.20;;;;;;;;;;4938365;28;20047;-85
2022/03/05 10:15:53;;;;;;;13.93;9.15;;;;;;;;;;4923543;29;20055;-81
2022/03/05 10:18:25;;;;;;;14.73;9.35;;;;;;;;;;4923766;29;20977;-83
2022/03/05 10:20:52;;;;;;;14.65;9.10;;;;;;;;;;4904126;29;20455;-83
2022/03/05 10:23:19;;;;;;;13.70;9.20;;;;;;;;;;4930028;29;20031;-83
2022/03/05 10:25:50;;;;;;;13.52;9.18;;;;;;;;;;4904573;29;20509;-82
2022/03/05 10:28:17;;;;;;;14.27;9.60;;;;;;;;;;4923116;29;20639;-82
2022/03/05 10:30:44;;;;;;;16.30;9.13;;;;;;;;;;4923349;29;20039;-83
2022/03/05 10:33:31;;;;;;;14.18;9.30;;;;;;;;;;4908899;29;20441;-84
2022/03/05 10:35:59;;;;;;;15.77;9.60;;;;;;;;;;4925244;29;20036;-83
2022/03/05 10:38:41;;;;;;;13.50;8.52;;;;;;;;;;4909781;29;20358;-82
2022/03/05 10:41:06;;;;;;;15.38;9.30;;;;;;;;;;4909126;29;20786;-80
2022/03/05 10:43:32;;;;;;;16.90;9.52;;;;;;;;;;4906040;29;20032;-80
2022/03/05 10:45:59;;;;;;;12.70;8.20;;;;;;;;;;4938207;29;20039;-78
2022/03/05 10:48:27;;;;;;;17.23;11.02;;;;;;;;;;4924552;29;20583;-81
2022/03/05 10:51:13;;;;;;;21.30;10.43;;;;;;;;;;4906031;29;20039;-82
2022/03/05 10:53:43;;;;;;;12.27;8.75;;;;;;;;;;4922835;29;20035;-81
2022/03/05 10:56:25;;;;;;;13.23;8.60;;;;;;;;;;4922762;29;20051;-82
2022/03/05 10:58:57;;;;;;;12.63;7.55;;;;;;;;;;4939480;29;20131;-82
2022/03/05 11:01:23;;;;;;;12.98;8.43;;;;;;;;;;4937423;28;20043;-83
2022/03/05 11:03:53;;;;;;;11.65;7.30;;;;;;;;;;4925037;29;20138;-83
2022/03/05 11:06:22;;;;;;;11.90;7.15;;;;;;;;;;4923483;29;20047;-83
2022/03/05 11:08:48;;;;;;;10.30;7.50;;;;;;;;;;4909086;29;20044;-82
2022/03/05 11:11:18;;;;;;;12.80;7.93;;;;;;;;;;4924744;29;20047;-83
2022/03/05 11:13:44;;;;;;;11.02;7.10;;;;;;;;;;4925386;29;20087;-82
2022/03/05 11:16:10;;;;;;;9.48;6.35;;;;;;;;;;4924743;29;20499;-83
2022/03/05 11:18:36;;;;;;;9.65;6.25;;;;;;;;;;4905943;29;20039;-83
2022/03/05 11:21:02;;;;;;;8.77;6.32;;;;;;;;;;4906570;29;20038;-83
2022/03/05 11:23:27;;;;;;;8.60;5.80;;;;;;;;;;4909466;29;20043;-84
2022/03/05 11:25:54;;;;;;;9.07;5.80;;;;;;;;;;4924120;29;20047;-83
2022/03/05 11:28:22;;;;;;;7.78;5.53;;;;;;;;;;4907732;29;20048;-82
2022/03/05 11:30:53;;;;;;;9.38;6.30;;;;;;;;;;4908613;29;20051;-82
2022/03/05 11:33:33;;;;;;;9.65;6.10;;;;;;;;;;4909086;29;20543;-83
2022/03/05 11:36:06;;;;;;;8.90;6.15;;;;;;;;;;4907133;29;20035;-82
2022/03/05 11:38:38;;;;;;;9.32;6.63;;;;;;;;;;4907023;29;20055;-82
2022/03/05 11:41:19;;;;;;;9.05;6.35;;;;;;;;;;5078863;23;20042;-81
2022/03/05 11:43:44;;;;;;;9.07;6.03;;;;;;;;;;4985037;28;20091;-81
2022/03/05 11:46:23;;;;;;;9.45;6.75;;;;;;;;;;4997964;28;20034;-81
2022/03/05 11:49:02;;;;;;;10.55;6.15;;;;;;;;;;4985569;28;20518;-81
2022/03/05 11:51:28;;;;;;;8.07;5.47;;;;;;;;;;5001788;28;20044;-82
2022/03/05 11:54:13;;;;;;;48.90;31.88;;;;;;;;;;4969011;28;20038;-82
2022/03/05 11:56:38;;;;;;;9.30;6.20;;;;;;;;;;4984091;28;20145;-82
2022/03/05 11:59:32;;;;;;;8.65;5.70;;;;;;;;;;4986594;28;20120;-84
2022/03/05 12:01:58;;;;;;;9.07;5.80;;;;;;;;;;4984394;28;20076;-83
2022/03/05 12:04:26;;;;;;;8.07;5.68;;;;;;;;;;4989270;28;20077;-82
2022/03/05 12:06:55;;;;;;;8.18;5.43;;;;;;;;;;4991137;28;20124;-81
2022/03/05 12:09:35;;;;;;;8.00;5.32;;;;;;;;;;5008187;28;20027;-82
2022/03/05 12:12:01;;;;;;;7.72;4.93;;;;;;;;;;4986688;28;20034;-84
2022/03/05 12:15:06;;;;;;;6.70;5.00;;;;;;;;;;4988730;28;20056;-84
2022/03/05 12:17:34;;;;;;;7.95;5.20;;;;;;;;;;5004316;28;20500;-83
2022/03/05 12:20:04;;;;;;;8.02;5.70;;;;;;;;;;4972014;28;20069;-83
2022/03/05 12:22:30;;;;;;;9.93;5.75;;;;;;;;;;4987348;28;20038;-82
2022/03/05 12:24:55;;;;;;;9.38;6.13;;;;;;;;;;5003117;28;20077;-82
2022/03/05 12:27:21;;;;;;;11.18;6.35;;;;;;;;;;4970143;28;20034;-80
2022/03/05 12:29:47;;;;;;;10.02;6.47;;;;;;;;;;4970902;28;20034;-81
2022/03/05 12:32:14;;;;;;;11.98;6.45;;;;;;;;;;4987448;28;20464;-82
2022/03/05 12:34:39;;;;;;;9.07;6.30;;;;;;;;;;4985556;28;20077;-82
2022/03/05 12:37:05;;;;;;;11.02;6.80;;;;;;;;;;4987025;28;20144;-81
2022/03/05 12:39:33;;;;;;;10.27;7.03;;;;;;;;;;4986895;28;20096;-82
2022/03/05 12:41:58;;;;;;;11.02;6.63;;;;;;;;;;4984653;28;20732;-81
2022/03/05 12:44:23;;;;;;;10.23;6.15;;;;;;;;;;4986508;28;20046;-81
2022/03/05 12:46:49;;;;;;;11.45;6.75;;;;;;;;;;4970645;28;20156;-81
2022/03/05 12:49:15;;;;;;;9.27;6.53;;;;;;;;;;4969392;28;20045;-81
2022/03/05 12:51:41;;;;;;;10.43;6.50;;;;;;;;;;4971981;28;20038;-81
2022/03/05 12:54:07;;;;;;;9.27;6.30;;;;;;;;;;5004939;28;20034;-81
2022/03/05 12:56:33;;;;;;;10.60;6.28;;;;;;;;;;4985458;28;20057;-82
2022/03/05 12:59:00;;;;;;;10.40;6.70;;;;;;;;;;5004209;28;20042;-82
2022/03/05 13:01:26;;;;;;;8.07;6.03;;;;;;;;;;4987445;28;20690;-82
2022/03/05 13:03:54;;;;;;;9.85;6.15;;;;;;;;;;4986966;28;20512;-81
2022/03/05 13:06:19;;;;;;;;;;;;;;;;;;4986132;28;20033;-81
2022/03/05 13:08:45;;;;;;;8.60;5.80;;;;;;;;;;4987538;28;20785;-82
2022/03/05 13:11:12;;;;;;;10.40;6.13;;;;;;;;;;4988751;28;20360;-82
2022/03/05 13:13:38;;;;;;;11.23;6.10;;;;;;;;;;4970425;28;20038;-82
2022/03/05 13:16:06;;;;;;;9.30;6.00;;;;;;;;;;5003033;28;20060;-82
2022/03/05 13:18:31;;;;;;;;;;;;;;;;;;4971237;28;20596;-81
2022/03/05 13:21:01;;;;;;;8.95;5.75;;;;;;;;;;4989191;28;19925;-81
2022/03/05 13:23:27;;;;;;;8.52;5.28;;;;;;;;;;4986039;28;20034;-83
2022/03/05 13:25:55;;;;;;;9.05;5.90;;;;;;;;;;4982868;28;20038;-82
2022/03/05 13:28:22;;;;;;;8.80;5.25;;;;;;;;;;4990233;28;20042;-82
2022/03/05 13:31:00;;;;;;;8.30;5.33;;;;;;;;;;5000469;28;20026;-82
2022/03/05 13:33:37;;;;;;;9.05;5.10;;;;;;;;;;4971614;28;20037;-83
2022/03/05 13:36:17;;;;;;;8.20;5.30;;;;;;;;;;4967089;28;20445;-83
2022/03/05 13:38:43;;;;;;;7.53;4.55;;;;;;;;;;4987156;28;20029;-82
2022/03/05 13:41:14;;;;;;;8.52;4.63;;;;;;;;;;4983578;28;20175;-82
2022/03/05 13:43:40;;;;;;;7.80;4.68;;;;;;;;;;5000468;28;20045;-83
2022/03/05 13:46:07;;;;;;;9.32;5.18;;;;;;;;;;4999364;28;20509;-82
2022/03/05 13:48:40;;;;;;;8.88;4.80;;;;;;;;;;4985351;28;20749;-82
2022/03/05 13:51:13;;;;;;;8.45;4.35;;;;;;;;;;4968229;28;20037;-83
2022/03/05 13:53:46;;;;;;;8.10;4.60;;;;;;;;;;4986791;28;20455;-83
2022/03/05 13:56:13;;;;;;;8.40;5.10;;;;;;;;;;4984537;28;20044;-83
2022/03/05 13:58:39;;;;;;;7.82;4.50;;;;;;;;;;4968433;28;20820;-83
2022/03/05 14:01:33;;;;;;;6.85;4.20;;;;;;;;;;4967345;28;20030;-83
2022/03/05 14:04:08;;;;;;;8.68;4.70;;;;;;;;;;4983180;28;20034;-83
2022/03/05 14:06:56;;;;;;;8.48;4.47;;;;;;;;;;4982298;28;20117;-83
2022/03/05 14:09:29;;;;;;;8.13;4.60;;;;;;;;;;4982725;28;20382;-83
2022/03/05 14:12:13;;;;;;;7.57;4.10;;;;;;;;;;4983280;28;20126;-83
2022/03/05 14:14:42;;;;;;;9.73;4.55;;;;;;;;;;4984620;28;20049;-82
2022/03/05 14:17:09;;;;;;;6.93;4.13;;;;;;;;;;4997907;28;20041;-83
2022/03/05 14:19:34;;;;;;;8.70;4.43;;;;;;;;;;4972615;28;20084;-83
2022/03/05 14:22:08;;;;;;;7.07;3.90;;;;;;;;;;4981151;28;20429;-83
2022/03/05 14:24:33;;;;;;;7.20;4.00;;;;;;;;;;4999895;28;20508;-83
2022/03/05 14:26:59;;;;;;;6.90;4.07;;;;;;;;;;4980171;28;20048;-82
2022/03/05 14:29:24;;;;;;;7.45;3.83;;;;;;;;;;4968588;28;20517;-82
2022/03/05 14:31:49;;;;;;;9.60;4.28;;;;;;;;;;4972077;28;20073;-82